Map

Track Data

SID SEASON NUMBER BASIN SUBBASIN NAME ISO_TIME NATURE LAT LON WMO_WIND WMO_PRES WMO_AGENCY TRACK_TYPE DIST2LAND LANDFALL IFLAG USA_AGENCY USA_ATCF_ID USA_LAT USA_LON USA_RECORD USA_STATUS USA_WIND USA_PRES USA_SSHS USA_R34_NE USA_R34_SE USA_R34_SW USA_R34_NW USA_R50_NE USA_R50_SE USA_R50_SW USA_R50_NW USA_R64_NE USA_R64_SE USA_R64_SW USA_R64_NW USA_POCI USA_ROCI USA_RMW USA_EYE TOKYO_LAT TOKYO_LON TOKYO_GRADE TOKYO_WIND TOKYO_PRES TOKYO_R50_DIR TOKYO_R50_LONG TOKYO_R50_SHORT TOKYO_R30_DIR TOKYO_R30_LONG TOKYO_R30_SHORT TOKYO_LAND CMA_LAT CMA_LON CMA_CAT CMA_WIND CMA_PRES HKO_LAT HKO_LON HKO_CAT HKO_WIND HKO_PRES NEWDELHI_LAT NEWDELHI_LON NEWDELHI_GRADE NEWDELHI_WIND NEWDELHI_PRES NEWDELHI_CI NEWDELHI_DP NEWDELHI_POCI REUNION_LAT REUNION_LON REUNION_TYPE REUNION_WIND REUNION_PRES REUNION_TNUM REUNION_CI REUNION_RMW REUNION_R34_NE REUNION_R34_SE REUNION_R34_SW REUNION_R34_NW REUNION_R50_NE REUNION_R50_SE REUNION_R50_SW REUNION_R50_NW REUNION_R64_NE REUNION_R64_SE REUNION_R64_SW REUNION_R64_NW BOM_LAT BOM_LON BOM_TYPE BOM_WIND BOM_PRES BOM_TNUM BOM_CI BOM_RMW BOM_R34_NE BOM_R34_SE BOM_R34_SW BOM_R34_NW BOM_R50_NE BOM_R50_SE BOM_R50_SW BOM_R50_NW BOM_R64_NE BOM_R64_SE BOM_R64_SW BOM_R64_NW BOM_ROCI BOM_POCI BOM_EYE BOM_POS_METHOD BOM_PRES_METHOD NADI_LAT NADI_LON NADI_CAT NADI_WIND NADI_PRES WELLINGTON_LAT WELLINGTON_LON WELLINGTON_WIND WELLINGTON_PRES DS824_LAT DS824_LON DS824_STAGE DS824_WIND DS824_PRES TD9636_LAT TD9636_LON TD9636_STAGE TD9636_WIND TD9636_PRES TD9635_LAT TD9635_LON TD9635_WIND TD9635_PRES TD9635_ROCI NEUMANN_LAT NEUMANN_LON NEUMANN_CLASS NEUMANN_WIND NEUMANN_PRES MLC_LAT MLC_LON MLC_CLASS MLC_WIND MLC_PRES USA_GUST BOM_GUST BOM_GUST_PER REUNION_GUST REUNION_GUST_PER USA_SEAHGT USA_SEARAD_NE USA_SEARAD_SE USA_SEARAD_SW USA_SEARAD_NW STORM_SPEED STORM_DIR
1970277N12265 1970 128 EP MM PATRICIA 1970-10-04 00:00:00 TS 12.1000 -95.4000 25 hurdat_epa main 412 388 O________OO___ hurdat_epa EP161970 12.1000 -95.4000 TD 25 -1 12.1000 -95.4000 TC 25 12.1000 -95.4000 1 11 281
1970277N12265 1970 128 EP MM PATRICIA 1970-10-04 03:00:00 TS 12.2042 -95.9433 main 388 369 P________PP___ EP161970 12.2102 -95.9424 TD 25 -1 12.2102 -95.9424 TC 25 12.1802 -95.9467 1 11 280
1970277N12265 1970 128 EP MM PATRICIA 1970-10-04 06:00:00 TS 12.2916 -96.5010 25 hurdat_epa main 369 369 O________OP___ hurdat_epa EP161970 12.3000 -96.5000 TD 25 -1 12.3000 -96.5000 TC 25 12.2580 -96.5049 1 11 278
1970277N12265 1970 128 EP MM PATRICIA 1970-10-04 09:00:00 TS 12.3522 -97.0852 main 362 362 P________PP___ EP161970 12.3574 -97.0851 TD 25 -1 12.3574 -97.0851 TC 25 12.3318 -97.0856 1 12 275
1970277N12265 1970 128 EP MM PATRICIA 1970-10-04 12:00:00 TS 12.4000 -97.7000 25 hurdat_epa main 377 377 O________OO___ hurdat_epa EP161970 12.4000 -97.7000 TD 25 -1 12.4000 -97.7000 TC 25 12.4000 -97.7000 2 12 275
1970277N12265 1970 128 EP MM PATRICIA 1970-10-04 15:00:00 TS 12.4521 -98.3389 main 392 392 P________PP___ EP161970 12.4498 -98.3350 TD 35 0 12.4498 -98.3350 TC 35 12.4612 -98.3544 2 13 275
1970277N12265 1970 128 EP MM PATRICIA 1970-10-04 18:00:00 TS 12.5030 -99.0070 45 hurdat_epa main 412 412 O________OP___ hurdat_epa EP161970 12.5000 -99.0000 TS 45 0 12.5000 -99.0000 TC 45 12.5150 -99.0351 2 13 275
1970277N12265 1970 128 EP MM PATRICIA 1970-10-04 21:00:00 TS 12.5582 -99.7046 main 430 430 P________PP___ EP161970 12.5574 -99.7000 TS 45 0 12.5574 -99.7000 TC 45 12.5612 -99.7232 2 14 274
1970277N12265 1970 128 EP MM PATRICIA 1970-10-05 00:00:00 TS 12.6000 -100.400 45 hurdat_epa main 457 457 O________OO___ hurdat_epa EP161970 12.6000 -100.400 TS 45 0 12.6000 -100.400 TC 45 12.6000 -100.400 2 13 272
1970277N12265 1970 128 EP MM PATRICIA 1970-10-05 03:00:00 TS 12.6029 -101.059 main 483 483 P________PP___ EP161970 12.5998 -101.065 TS 45 0 12.5998 -101.065 TC 45 12.6153 -101.036 2 13 270
1970277N12265 1970 128 EP MM PATRICIA 1970-10-05 06:00:00 TS 12.6053 -101.692 45 hurdat_epa main 506 506 O________OP___ hurdat_epa EP161970 12.6000 -101.700 TS 45 0 12.6000 -101.700 TC 45 12.6266 -101.658 2 12 272
1970277N12265 1970 128 EP MM PATRICIA 1970-10-05 09:00:00 TS 12.6377 -102.295 main 537 535 P________PP___ EP161970 12.6348 -102.300 TS 45 0 12.6348 -102.300 TC 45 12.6497 -102.276 2 12 275
1970277N12265 1970 128 EP MM PATRICIA 1970-10-05 12:00:00 TS 12.7000 -102.900 45 hurdat_epa main 550 550 O________OO___ hurdat_epa EP161970 12.7000 -102.900 TS 45 0 12.7000 -102.900 TC 45 12.7000 -102.900 2 12 277
1970277N12265 1970 128 EP MM PATRICIA 1970-10-05 15:00:00 TS 12.7846 -103.540 main 565 565 P________PP___ EP161970 12.7849 -103.543 TS 60 0 12.7849 -103.543 TC 60 12.7835 -103.531 2 13 279
1970277N12265 1970 128 EP MM PATRICIA 1970-10-05 18:00:00 TS 12.8993 -104.194 75 hurdat_epa main 594 594 O________OP___ hurdat_epa EP161970 12.9000 -104.200 HU 75 1 12.9000 -104.200 TC 75 12.8966 -104.170 2 13 281
1970277N12265 1970 128 EP MM PATRICIA 1970-10-05 21:00:00 TS 13.0351 -104.833 main 606 599 P________PP___ EP161970 13.0347 -104.835 HU 75 1 13.0347 -104.835 TC 75 13.0365 -104.825 2 13 283
1970277N12265 1970 128 EP MM PATRICIA 1970-10-06 00:00:00 TS 13.2000 -105.500 75 hurdat_epa main 609 607 O________OO___ hurdat_epa EP161970 13.2000 -105.500 HU 75 1 13.2000 -105.500 TC 75 13.2000 -105.500 4 14 285
1970277N12265 1970 128 EP MM PATRICIA 1970-10-06 03:00:00 TS 13.3888 -106.233 main 619 619 P________PP___ EP161970 13.3925 -106.243 HU 75 1 13.3925 -106.243 TC 75 13.3739 -106.196 4 15 285
1970277N12265 1970 128 EP MM PATRICIA 1970-10-06 06:00:00 TS 13.5939 -106.983 75 hurdat_epa main 645 645 O________OP___ hurdat_epa EP161970 13.6000 -107.000 HU 75 1 13.6000 -107.000 TC 75 13.5693 -106.913 4 15 286
1970277N12265 1970 128 EP MM PATRICIA 1970-10-06 09:00:00 TS 13.7897 -107.690 main 674 674 P________PP___ EP161970 13.7922 -107.700 HU 75 1 13.7922 -107.700 TC 75 13.7800 -107.649 4 14 286
1970277N12265 1970 128 EP MM PATRICIA 1970-10-06 12:00:00 TS 14.0000 -108.400 75 hurdat_epa main 696 696 O________OO___ hurdat_epa EP161970 14.0000 -108.400 HU 75 1 14.0000 -108.400 TC 75 14.0000 -108.400 4 15 288
1970277N12265 1970 128 EP MM PATRICIA 1970-10-06 15:00:00 TS 14.2449 -109.143 main 723 721 P________PP___ EP161970 14.2498 -109.135 HU 82 1 14.2498 -109.135 TC 82 14.2257 -109.173 4 15 289
1970277N12265 1970 128 EP MM PATRICIA 1970-10-06 18:00:00 TS 14.4914 -109.911 90 979 hurdat_epa main 755 755 O________OP___ hurdat_epa EP161970 14.5000 -109.900 HU 90 979 2 14.5000 -109.900 TC 90 979 14.4572 -109.957 4 16 287
1970277N12265 1970 128 EP MM PATRICIA 1970-10-06 21:00:00 TS 14.7030 -110.714 main 801 801 P________PP___ EP161970 14.7074 -110.708 HU 90 2 14.7074 -110.708 TC 90 14.6851 -110.738 4 16 285
1970277N12265 1970 128 EP MM PATRICIA 1970-10-07 00:00:00 TS 14.9000 -111.500 90 hurdat_epa main 849 849 O________OO___ hurdat_epa EP161970 14.9000 -111.500 HU 90 2 14.9000 -111.500 TC 90 14.9000 -111.500 4 15 285
1970277N12265 1970 128 EP MM PATRICIA 1970-10-07 03:00:00 TS 15.1059 -112.220 main 894 894 P________PP___ EP161970 15.1071 -112.215 HU 90 2 15.1071 -112.215 TC 90 15.1009 -112.238 4 14 286
1970277N12265 1970 128 EP MM PATRICIA 1970-10-07 06:00:00 TS 15.2973 -112.911 90 hurdat_epa main 903 899 O________OP___ hurdat_epa EP161970 15.3000 -112.900 HU 90 2 15.3000 -112.900 TC 90 15.2867 -112.953 4 14 285
1970277N12265 1970 128 EP MM PATRICIA 1970-10-07 09:00:00 TS 15.4628 -113.620 main 909 909 P________PP___ EP161970 15.4649 -113.615 HU 90 2 15.4649 -113.615 TC 90 15.4542 -113.641 4 14 283
1970277N12265 1970 128 EP MM PATRICIA 1970-10-07 12:00:00 TS 15.6000 -114.300 90 hurdat_epa main 932 932 O________OO___ hurdat_epa EP161970 15.6000 -114.300 HU 90 2 15.6000 -114.300 TC 90 15.6000 -114.300 4 13 281
1970277N12265 1970 128 EP MM PATRICIA 1970-10-07 15:00:00 TS 15.7098 -114.916 main 955 955 P________PP___ EP161970 15.7072 -114.915 HU 90 2 15.7072 -114.915 TC 90 15.7204 -114.917 4 12 280
1970277N12265 1970 128 EP MM PATRICIA 1970-10-07 18:00:00 TS 15.8042 -115.502 90 976 hurdat_epa main 981 981 O________OP___ hurdat_epa EP161970 15.8000 -115.500 HU 90 976 2 15.8000 -115.500 TC 90 976 15.8209 -115.508 4 12 280
1970277N12265 1970 128 EP MM PATRICIA 1970-10-07 21:00:00 TS 15.9020 -116.093 main 1010 1010 P________PP___ EP161970 15.8998 -116.093 HU 90 2 15.8998 -116.093 TC 90 15.9110 -116.095 4 12 280
1970277N12265 1970 128 EP MM PATRICIA 1970-10-08 00:00:00 TS 16.0000 -116.700 90 hurdat_epa main 1043 1043 O________OO___ hurdat_epa EP161970 16.0000 -116.700 HU 90 2 16.0000 -116.700 TC 90 16.0000 -116.700 4 12 279
1970277N12265 1970 128 EP MM PATRICIA 1970-10-08 03:00:00 TS 16.1006 -117.341 main 1078 1078 P________PP___ EP161970 16.0998 -117.335 HU 90 2 16.0998 -117.335 TC 90 16.1040 -117.366 4 13 279
1970277N12265 1970 128 EP MM PATRICIA 1970-10-08 06:00:00 TS 16.2015 -118.010 90 hurdat_epa main 1123 1123 O________OP___ hurdat_epa EP161970 16.2000 -118.000 HU 90 2 16.2000 -118.000 TC 90 16.2075 -118.050 4 13 279
1970277N12265 1970 128 EP MM PATRICIA 1970-10-08 09:00:00 TS 16.3014 -118.713 main 1163 1163 P________PP___ EP161970 16.3000 -118.708 HU 90 2 16.3000 -118.708 TC 90 16.3071 -118.734 4 14 278
1970277N12265 1970 128 EP MM PATRICIA 1970-10-08 12:00:00 TS 16.4000 -119.400 90 hurdat_epa main 1198 1198 O________OO___ hurdat_epa EP161970 16.4000 -119.400 HU 90 2 16.4000 -119.400 TC 90 16.4000 -119.400 4 13 279
1970277N12265 1970 128 EP MM PATRICIA 1970-10-08 15:00:00 TS 16.4996 -120.019 main 1230 1230 P________PP___ EP161970 16.5072 -120.015 HU 92 2 16.5072 -120.015 TC 92 16.4694 -120.034 4 12 279
1970277N12265 1970 128 EP MM PATRICIA 1970-10-08 18:00:00 TS 16.5869 -120.609 95 972 hurdat_epa main 1265 1265 O________OP___ hurdat_epa EP161970 16.6000 -120.600 HU 95 972 2 16.6000 -120.600 TC 95 972 16.5343 -120.646 4 12 277
1970277N12265 1970 128 EP MM PATRICIA 1970-10-08 21:00:00 TS 16.6413 -121.213 main 1309 1308 P________PP___ EP161970 16.6499 -121.208 HU 95 2 16.6499 -121.208 TC 95 16.6070 -121.234 4 11 276
1970277N12265 1970 128 EP MM PATRICIA 1970-10-09 00:00:00 TS 16.7000 -121.800 95 hurdat_epa main 1346 1346 O________OO___ hurdat_epa EP161970 16.7000 -121.800 HU 95 2 16.7000 -121.800 TC 95 16.7000 -121.800 4 11 277
1970277N12265 1970 128 EP MM PATRICIA 1970-10-09 03:00:00 TS 16.7818 -122.363 main 1386 1386 P________PP___ EP161970 16.7774 -122.365 HU 95 2 16.7774 -122.365 TC 95 16.7995 -122.355 4 11 281
1970277N12265 1970 128 EP MM PATRICIA 1970-10-09 06:00:00 TS 16.9049 -122.898 95 hurdat_epa main 1418 1418 O________OP___ hurdat_epa EP161970 16.9000 -122.900 HU 95 2 16.9000 -122.900 TC 95 16.9243 -122.888 4 10 286
1970277N12265 1970 128 EP MM PATRICIA 1970-10-09 09:00:00 TS 17.0673 -123.413 main 1445 1445 P________PP___ EP161970 17.0624 -123.415 HU 95 2 17.0624 -123.415 TC 95 17.0871 -123.402 4 10 292
1970277N12265 1970 128 EP MM PATRICIA 1970-10-09 12:00:00 TS 17.3000 -123.900 95 hurdat_epa main 1474 1471 O________OO___ hurdat_epa EP161970 17.3000 -123.900 HU 95 2 17.3000 -123.900 TC 95 17.3000 -123.900 4 11 302
1970277N12265 1970 128 EP MM PATRICIA 1970-10-09 15:00:00 TS 17.6316 -124.358 main 1483 1470 P________PP___ EP161970 17.6348 -124.350 HU 95 2 17.6348 -124.350 TC 95 17.6188 -124.388 4 11 309
1970277N12265 1970 128 EP MM PATRICIA 1970-10-09 18:00:00 TS 17.9959 -124.813 95 980 hurdat_epa main 1476 1473 O________OP___ hurdat_epa EP161970 18.0000 -124.800 HU 95 980 2 18.0000 -124.800 TC 95 980 17.9793 -124.864 4 11 308
1970277N12265 1970 128 EP MM PATRICIA 1970-10-09 21:00:00 TS 18.3350 -125.306 main 1486 1478 P________PP___ EP161970 18.3375 -125.300 HU 77 1 18.3375 -125.300 TC 77 18.3251 -125.332 4 11 303
1970277N12265 1970 128 EP MM PATRICIA 1970-10-10 00:00:00 TS 18.6000 -125.800 60 hurdat_epa main 1499 1499 O________OO___ hurdat_epa EP161970 18.6000 -125.800 TS 60 0 18.6000 -125.800 TC 60 18.6000 -125.800 2 10 294
1970277N12265 1970 128 EP MM PATRICIA 1970-10-10 03:00:00 TS 18.7449 -126.260 main 1529 1521 P________PP___ EP161970 18.7448 -126.250 TS 57 0 18.7448 -126.250 TC 57 18.7453 -126.300 2 9 283
1970277N12265 1970 128 EP MM PATRICIA 1970-10-10 06:00:00 TS 18.8025 -126.719 55 hurdat_epa main 1552 1552 O________OP___ hurdat_epa EP161970 18.8000 -126.700 TS 55 0 18.8000 -126.700 TC 55 18.8126 -126.796 2 9 275
1970277N12265 1970 128 EP MM PATRICIA 1970-10-10 09:00:00 TS 18.8228 -127.232 main 1592 1592 P________PP___ EP161970 18.8226 -127.223 TS 52 0 18.8226 -127.223 TC 52 18.8235 -127.269 2 9 270
1970277N12265 1970 128 EP MM PATRICIA 1970-10-10 12:00:00 TS 18.8000 -127.700 50 hurdat_epa main 1632 1632 O________OO___ hurdat_epa EP161970 18.8000 -127.700 TS 50 0 18.8000 -127.700 TC 50 18.8000 -127.700 2 8 265
1970277N12265 1970 128 EP MM PATRICIA 1970-10-10 15:00:00 TS 18.7590 -128.033 main 1656 1656 P________PP___ EP161970 18.7572 -128.023 TS 47 0 18.7572 -128.023 TC 47 18.7660 -128.077 2 6 260
1970277N12265 1970 128 EP MM PATRICIA 1970-10-10 18:00:00 TS 18.7014 -128.322 45 hurdat_epa main 1688 1688 O________OP___ hurdat_epa EP161970 18.7000 -128.300 TS 45 0 18.7000 -128.300 TC 45 18.7069 -128.411 2 6 259
1970277N12265 1970 128 EP MM PATRICIA 1970-10-10 21:00:00 TS 18.6429 -128.663 main 1728 1728 P________PP___ EP161970 18.6425 -128.650 TS 40 0 18.6425 -128.650 TC 40 18.6443 -128.714 2 7 261
1970277N12265 1970 128 EP MM PATRICIA 1970-10-11 00:00:00 TS 18.6000 -129.000 35 hurdat_epa main 1753 1753 O________OO___ hurdat_epa EP161970 18.6000 -129.000 TS 35 0 18.6000 -129.000 TC 35 18.6000 -129.000 6 6 265
1970277N12265 1970 128 EP MM PATRICIA 1970-10-11 03:00:00 TS 18.5860 -129.308 main 1778 1778 P________PP___ EP161970 18.5849 -129.315 TS 32 -1 18.5849 -129.315 TC 32 18.5903 -129.279 6 6 270
1970277N12265 1970 128 EP MM PATRICIA 1970-10-11 06:00:00 TS 18.6021 -129.591 30 hurdat_epa main 1803 1803 O________OP___ hurdat_epa EP161970 18.6000 -129.600 TD 30 -1 18.6000 -129.600 TC 30 18.6105 -129.555 6 5 276
1970277N12265 1970 128 EP MM PATRICIA 1970-10-11 09:00:00 TS 18.6441 -129.852 main 1828 1821 P________PP___ EP161970 18.6426 -129.857 TD 27 -1 18.6426 -129.857 TC 27 18.6504 -129.828 6 5 281
1970277N12265 1970 128 EP MM PATRICIA 1970-10-11 12:00:00 TS 18.7000 -130.100 25 hurdat_epa main 1838 O________OO___ hurdat_epa EP161970 18.7000 -130.100 TD 25 -1 18.7000 -130.100 TC 25 18.7000 -130.100 6 5 283

About IBTrACS Database

This database is a web-friendly format of International Best Track Archive for Climate Stewardship (IBTrACS), a global best track data archive curated by NOAA dating back to 1842.

Updated: 2021-11-26